logo
Games released in Jun 2017
# Game Release date
Price
Score rank
(Userscore / Metascore)
Owners
Playtime (Median)
Developer(s)
Publisher(s)
1 Nex Machina Jun 20, 2017 $19.99N/A (N/A/84%)200,000 .. 500,00000:00 (00:00)HousemarqueHousemarque
2 Monolith Jun 7, 2017 $7.99N/A (N/A/83%)20,000 .. 50,00000:00 (00:00)Team D-13Team D-13
3 TEKKEN 7 Jun 1, 2017 $39.99N/A (N/A/82%)500,000 .. 1,000,00004:08 (04:01)BANDAI NAMCO Studios Inc.BANDAI NAMCO Entertainment
4 FORM Jun 1, 2017 $14.99N/A (N/A/81%)20,000 .. 50,00000:00 (00:00)Charm GamesCharm Games
5 CRYPTARK Jun 20, 2017 $14.99N/A (N/A/80%)50,000 .. 100,00000:00 (00:00)AlientrapAlientrap
6 DiRT 4 Jun 9, 2017 $59.99N/A (N/A/78%)200,000 .. 500,00000:00 (00:00)Codemasters, Feral Interactive (Mac), Feral Interactive (Linux)Codemasters, Feral Interactive (Mac), Feral Interactive (Linux)
7 Lydia Jun 2, 2017 $4.99N/A (N/A/78%)20,000 .. 50,00000:00 (00:00)Platonic Partnership LtdPlatonic Partnership Ltd
8 Serious Sam's Bogus Detour Jun 20, 2017 $14.99N/A (N/A/76%)20,000 .. 50,00000:00 (00:00)Crackshell, CroteamDevolver Digital
9 GET EVEN Jun 20, 2017 $29.99N/A (N/A/75%)20,000 .. 50,00000:00 (00:00)The Farm 51BANDAI NAMCO Entertainment
10 Pro Cycling Manager 2017 Jun 15, 2017 $29.99N/A (N/A/71%)50,000 .. 100,00000:00 (00:00)Cyanide StudioFocus Home Interactive
11 Drifting Lands Jun 5, 2017 $18.99N/A (N/A/71%)0 .. 20,00000:00 (00:00)AlkemiAlkemi
12 Conarium Jun 6, 2017 $19.99N/A (N/A/71%)20,000 .. 50,00000:00 (00:00)Zoetrope InteractiveIceberg Interactive
13 Blitzkrieg 3 Jun 2, 2017 $9.99N/A (N/A/68%)50,000 .. 100,00000:00 (00:00)NivalNival
14 Pacer Jun 1, 2017 N/AN/A (N/A/58%)0 .. 20,00000:00 (00:00)R8 Games LtdR8 Games Ltd
15 AereA Jun 2, 2017 $14.99N/A (N/A/53%)0 .. 20,00000:00 (00:00)Triangle StudiosSOEDESCO Publishing
16 No70: Eye of Basir Jun 28, 2017 $2.99N/A (N/A/52%)0 .. 20,00000:00 (00:00)Oldmoustache GameworksArtcom FZC
17 Randall Jun 6, 2017 $14.99N/A (N/A/48%)0 .. 20,00000:00 (00:00)We The Force StudiosWe The Force Studios
18 Darknet Jun 8, 2017 $14.99N/A (N/A)0 .. 20,00000:00 (00:00)E McNeillE McNeill
19 Please Jun 24, 2017 $2.99N/A (N/A)0 .. 20,00000:00 (00:00)Mute CanaryMute Canary
20 Cowboy's Adventure Jun 29, 2017 $0.99N/A (N/A)0 .. 20,00000:00 (00:00)Blender GamesBlender Games
21 World of One Jun 8, 2017 $3.99N/A (N/A)0 .. 20,00000:00 (00:00)Grimwood TeamGrimwood Team
22 Prism Jun 19, 2017 $49.99N/A (N/A)0 .. 20,00000:00 (00:00)NCH SoftwareNCH Software
23 Splinter Zone Jun 1, 2017 $4.99N/A (N/A)0 .. 20,00000:00 (00:00)MOKKOGRADMOKKOGRAD
24 Void Source Jun 22, 2017 $3.99N/A (N/A)0 .. 20,00000:00 (00:00)XitilonXitilon
25 Passpartout: The Starving Artist Jun 6, 2017 $9.99N/A (N/A)100,000 .. 200,00000:00 (00:00)Flamebait GamesFlamebait Games
26 FL337 - "Fleet" Jun 20, 2017 $4.99N/A (N/A)0 .. 20,00000:00 (00:00)KWL ProductionsKWL Productions
27 xoEl Empire Jun 6, 2017 $5.99N/A (N/A)0 .. 20,00000:00 (00:00)Greyman StudiosGreyman Studios
28 Lepofrenia Jun 9, 2017 $0.51N/A (N/A)50,000 .. 100,00000:00 (00:00)SEA - EYE GSDagestan Technology
29 Wisdom of War Jun 6, 2017 $0.99N/A (N/A)0 .. 20,00000:00 (00:00)Yang SunYang Sun
30 Gus Track Adventures VR Jun 27, 2017 $5.99N/A (N/A)0 .. 20,00000:00 (00:00)maxlvlgamesmaxlvlgames
31 Deadly Metal Jun 16, 2017 $0.51N/A (N/A)20,000 .. 50,00000:00 (00:00)High and WideDagestan Technology
32 liquivid Video Stabilization Jun 22, 2017 $8.99N/A (N/A)0 .. 20,00000:00 (00:00)nullplussoftwarenullplussoftware
33 This is not RPG Jun 26, 2017 $0.99N/A (N/A)0 .. 20,00000:00 (00:00)zachs123456zachs123456
34 Stunt Kite Masters VR Jun 1, 2017 $4.99N/A (N/A)0 .. 20,00000:00 (00:00)HandyGamesHandyGames
35 Claybreaker - VR Clay Shooting Jun 23, 2017 $19.99N/A (N/A)0 .. 20,00000:00 (00:00)Ammonite Design Studios LtdAmmonite Design Studios Ltd
36 Murder In Tehran's Alleys 1933 Jun 8, 2017 $9.99N/A (N/A)0 .. 20,00000:00 (00:00)RSK EntertainmentStrategy First
37 Diorama Worlds Jun 13, 2017 FreeN/A (N/A)0 .. 20,00000:00 (00:00)Mixed Reality WorldsMixed Reality Worlds
38 Crimson Earth Jun 10, 2017 $0.49N/A (N/A)100,000 .. 200,00000:00 (00:00)EHTechnologyEHTechnology
39 The Hunt Jun 6, 2017 $9.99N/A (N/A)0 .. 20,00000:00 (00:00)Bass Pro ShopsConsole Classics
40 Delay Jun 12, 2017 $1.99N/A (N/A)0 .. 20,00000:00 (00:00)Matt Frankbaconlovarstudios
41 Rival Books of Aster Jun 20, 2017 FreeN/A (N/A)0 .. 20,00000:00 (00:00)Stitch MediaStitch Media
42 VALKYRIE DRIVE -BHIKKHUNI- Jun 20, 2017 $29.99N/A (N/A)20,000 .. 50,00000:00 (00:00)Meteorise, HONEY∞PARADE GAMESMarvelous
43 VRun Jun 1, 2017 $4.99N/A (N/A)0 .. 20,00000:00 (00:00)Phoenix3, Mr. L, Mr.TMr. L
44 Weeping Skies Jun 16, 2017 $6.99N/A (N/A)0 .. 20,00000:00 (00:00)MysteryTagRunServer
45 Neighborhorde Jun 5, 2017 $4.99N/A (N/A)0 .. 20,00000:00 (00:00)Fermenter GamesFermenter Games
46 Ambre - a heartbreaking kinetic novel Jun 9, 2017 FreeN/A (N/A)50,000 .. 100,00000:00 (00:00)Träumendes MädchenTräumendes Mädchen
47 Family Tree Heritage Platinum 15 – Windows Jun 22, 2017 $39.99N/A (N/A)0 .. 20,00000:00 (00:00)Individual SoftwareIndividual Software
48 New Frontier Days ~Founding Pioneers~ Jun 7, 2017 $9.99N/A (N/A)0 .. 20,00000:00 (00:00)Arc System WorksArc System Works
49 Vidar Jun 14, 2017 $9.99N/A (N/A)0 .. 20,00000:00 (00:00)Razbury GamesRazbury Games
50 Symphonic Rain Jun 14, 2017 $39.99N/A (N/A)0 .. 20,00000:00 (00:00)KOGADO STUDIODegica
51 AnyTime Organizer Deluxe 15 Jun 20, 2017 $39.99N/A (N/A)0 .. 20,00000:00 (00:00)Individual SoftwareIndividual Software
52 69 Ways to Kill a Zombie Jun 8, 2017 $19.99N/A (N/A)0 .. 20,00000:00 (00:00)Wadup GamesWadup Games
53 FlyingRock: Arena Jun 19, 2017 FreeN/A (N/A)20,000 .. 50,00000:00 (00:00)Edo CreateEdo Create
54 Oats Studios - Volume 1 Assets Jun 14, 2017 FreeN/A (N/A)20,000 .. 50,00000:00 (00:00)Oats StudiosOats Studios
55 Delphinia Chronicle Jun 15, 2017 $4.99N/A (N/A)0 .. 20,00000:00 (00:00)Digital Cookie Co., Ltd.Digital Cookie Co., Ltd.
56 In Game Adventure: Legend of Monsters Jun 29, 2017 $0.99N/A (N/A)0 .. 20,00000:00 (00:00)Moraes StudioMoraes Studio
57 Diving Trunks Jun 20, 2017 $0.99N/A (N/A)0 .. 20,00000:00 (00:00)Lunacy InteractiveLunacy Interactive
58 Ping Jun 16, 2017 $0.99N/A (N/A)0 .. 20,00000:00 (00:00)Examined InteractiveExamined Interactive
59 Zafehouse Diaries 2 Jun 16, 2017 $6.99N/A (N/A)0 .. 20,00000:00 (00:00)Screwfly StudiosScrewfly Studios
60 Nukklerma: Robot Warfare Jun 5, 2017 $3.99N/A (N/A)0 .. 20,00000:00 (00:00)KerboGamesKerboGames
61 Drone Hero Jun 20, 2017 $5.99N/A (N/A)0 .. 20,00000:00 (00:00)Neuston ABNeuston AB
62 Gevaudan Jun 8, 2017 $2.99N/A (N/A)0 .. 20,00000:00 (00:00)Nicolas BernardMicroids Indie
63 b Jun 26, 2017 FreeN/A (N/A)100,000 .. 200,00000:00 (00:00)u&iu&i
64 HUNGER Jun 21, 2017 $4.99N/A (N/A)0 .. 20,00000:00 (00:00)Black SmerchBlack Smerch
65 Fight or Die 2 Jun 8, 2017 $0.51N/A (N/A)20,000 .. 50,00000:00 (00:00)Vyacheslav ShilikhinVyacheslav Shilikhin
66 Royal Detective: Queen of Shadows Collector's Edition Jun 9, 2017 $9.99N/A (N/A)0 .. 20,00000:00 (00:00)Elephant GamesBig Fish Games
67 Simple Light Cycles Jun 16, 2017 $0.59N/A (N/A)0 .. 20,00000:00 (00:00)KelsamKelsam
68 VR Photo Viewer Jun 22, 2017 $14.99N/A (N/A)0 .. 20,00000:00 (00:00)SprocketVRSprocketVR
69 The Agony Jun 14, 2017 $0.99N/A (N/A)20,000 .. 50,00000:00 (00:00)KishMish GamesKishMish Games
70 Pixel Gear Jun 12, 2017 $11.99N/A (N/A)0 .. 20,00000:00 (00:00)Geronimo InteractiveGeronimo Interactive
71 UFO - Unfortunately Fortunate Organisms Jun 2, 2017 $1.99N/A (N/A)0 .. 20,00000:00 (00:00)Rebourne StudiosBack To Basics Gaming
72 Neko Navy Jun 14, 2017 $10.99N/A (N/A)0 .. 20,00000:00 (00:00)DeathMofuMofuFruitbat Factory
73 Mocove Arts VR Jun 21, 2017 $4.99N/A (N/A)0 .. 20,00000:00 (00:00)Mocove StudioMocove Studio
74 Calm Waters: A Point and Click Adventure Jun 12, 2017 $4.99N/A (N/A)0 .. 20,00000:00 (00:00)Tayanna StudiosTayanna Studios
75 Sentience: The Android's Tale Jun 2, 2017 $3.99N/A (N/A)0 .. 20,00000:00 (00:00)Pilgrim AdventuresGrabTheGames
76 Material Girl Jun 20, 2017 $1.99N/A (N/A)200,000 .. 500,00000:00 (00:00)DieselmineParadise Project
77 WarpBall Jun 5, 2017 $8.99N/A (N/A)0 .. 20,00000:00 (00:00)Unruly AttractionsUnruly Attractions
78 Phobia Jun 9, 2017 $5.99N/A (N/A)0 .. 20,00000:00 (00:00)VGstudioVGstudio
79 Fabulous - Angela's High School Reunion Jun 21, 2017 $6.49N/A (N/A)0 .. 20,00000:00 (00:00)GameHouseGameHouse
80 Wonder Boy: The Dragon's Trap Jun 8, 2017 $19.99N/A (N/A)20,000 .. 50,00000:00 (00:00)LizardcubeDotEmu
81 Amaranthine Voyage: The Living Mountain Collector's Edition Jun 16, 2017 $9.99N/A (N/A)0 .. 20,00000:00 (00:00)Eipix EntertainmentBig Fish Games
82 StageX Jun 13, 2017 $1.99N/A (N/A)0 .. 20,00000:00 (00:00)UnitedRealityLabUnitedRealityLab
83 Ashes Jun 28, 2017 $0.99N/A (N/A)0 .. 20,00000:00 (00:00)FurGoldGamesFurGoldGames
84 BOXVR Jun 13, 2017 $19.99N/A (N/A)20,000 .. 50,00000:00 (00:00)FitXRFitXR
85 Tribal Siege Jun 13, 2017 $19.99N/A (N/A)0 .. 20,00000:00 (00:00)BOHDOKUMEN.BOHDOKUMEN.
86 Defend Your Kingdom Jun 27, 2017 $4.99N/A (N/A)0 .. 20,00000:00 (00:00)Burning Pick EntertainmentBurning Pick Entertainment
87 Disco Time 80s VR Jun 10, 2017 $4.99N/A (N/A)0 .. 20,00000:00 (00:00)Indiecode GamesIndiecode Games
88 The Golf Club 2 Jun 27, 2017 $29.99N/A (N/A)20,000 .. 50,00000:00 (00:00)HB StudiosMaximum Games
89 Weather Lord Jun 8, 2017 $4.99N/A (N/A)0 .. 20,00000:00 (00:00)Yustas Game Studio, Alawar EntertainmentBuka Entertainment
90 Venture Forth Jun 20, 2017 $9.99N/A (N/A)0 .. 20,00000:00 (00:00)Arclight WorldsIndie Voyage
91 Beans: The Coffee Shop Simulator Jun 30, 2017 $4.99N/A (N/A)20,000 .. 50,00000:00 (00:00)Whitethorn DigitalWhitethorn Digital
92 Little Miss Lonely Jun 9, 2017 $4.99N/A (N/A)0 .. 20,00000:00 (00:00)Club Cotton GamesClub Cotton Games
93 Lethis - Daring Discoverers Jun 8, 2017 $12.99N/A (N/A)0 .. 20,00000:00 (00:00)Triskell InteractiveTriskell Interactive
94 Gorescript Jun 15, 2017 $9.99N/A (N/A)0 .. 20,00000:00 (00:00)Sergiu BucurAmusedSloth
95 THE KING OF FIGHTERS XIV STEAM EDITION Jun 15, 2017 $59.99N/A (N/A)100,000 .. 200,00000:00 (00:00)SNK CORPORATION, Abstraction GamesSNK CORPORATION
96 VR Guest Jun 1, 2017 $9.99N/A (N/A)0 .. 20,00000:00 (00:00)Alison M. Bailey, Chronos Development StudiosChronos Development Studios
97 Cosmic Pioneer Jun 7, 2017 $0.99N/A (N/A)200,000 .. 500,00000:00 (00:00)Amaterasu SoftwareAmaterasu Software
98 3D Organon Anatomy Jun 21, 2017 $24.99N/A (N/A)0 .. 20,00000:00 (00:00)Medis MediaMedis Media
99 Kreedz Climbing Jun 15, 2017 FreeN/A (N/A)200,000 .. 500,00000:00 (00:00)ObsessionSoftObsessionSoft
100 Redfoot Bluefoot Dancing Jun 20, 2017 FreeN/A (N/A)0 .. 20,00000:00 (00:00)Rebuff RealityRebuff Reality
101 Stickmageddon Jun 27, 2017 $0.99N/A (N/A)50,000 .. 100,00000:00 (00:00)SadFishNedoStudio
102 Libra of the Vampire Princess Jun 20, 2017 $39.99N/A (N/A)0 .. 20,00000:00 (00:00)onomatope*, MiKandi Japanonomatope*, MiKandi Japan
103 Carrier Deck Jun 15, 2017 $9.99N/A (N/A)20,000 .. 50,00000:00 (00:00)Every Single SoldierSlitherine Ltd
104 Primal Lands Jun 27, 2017 $0.99N/A (N/A)0 .. 20,00000:00 (00:00)BlockheadGamesBlockheadGames
105 Ricky Raccoon 2 - Adventures in Egypt Jun 2, 2017 $8.99N/A (N/A)0 .. 20,00000:00 (00:00)Makivision Gamesrokaplay
106 Chimpology Jun 21, 2017 $1.99N/A (N/A)20,000 .. 50,00000:00 (00:00)themorfeus, Junkhivethemorfeus
107 LineWay Jun 20, 2017 $0.99N/A (N/A)0 .. 20,00000:00 (00:00)PonyPony
108 Professor Teaches QuickBooks 2017 Jun 20, 2017 $14.99N/A (N/A)0 .. 20,00000:00 (00:00)Individual SoftwareIndividual Software
109 Lotia Jun 2, 2017 $4.99N/A (N/A)0 .. 20,00000:00 (00:00)Crayon Ponyfish, LLCCrayon Ponyfish, LLC
110 Zulu Response Jun 12, 2017 $14.99N/A (N/A)0 .. 20,00000:00 (00:00)Web Interactive SolutionsWeb Interactive Solutions
111 Ragnarok Journey Jun 12, 2017 FreeN/A (N/A)50,000 .. 100,00000:00 (00:00)YourenGravity Interactive
112 Robot Pirates Jun 9, 2017 $1.99N/A (N/A)0 .. 20,00000:00 (00:00)Tydecon GamesTydecon Games
113 Pixel Puzzles Mosaics Jun 9, 2017 $9.99N/A (N/A)0 .. 20,00000:00 (00:00)DL SoftworksDL Softworks
114 Race for the Galaxy Jun 27, 2017 $6.99N/A (N/A)20,000 .. 50,00000:00 (00:00)Temple Gates GamesTemple Gates Games
115 Space Hit Jun 30, 2017 $0.99N/A (N/A)0 .. 20,00000:00 (00:00)Artur RezendeArtur Rezende
116 Hairy Little Buggers Jun 23, 2017 $14.99N/A (N/A)0 .. 20,00000:00 (00:00)Michael Todd GamesMichael Todd Games
117 Counter Fight: Samurai Edition Jun 7, 2017 $9.99N/A (N/A)0 .. 20,00000:00 (00:00)Tricol Co., Ltd.Tricol Co., Ltd.
118 Pixel Painter Jun 19, 2017 $0.99N/A (N/A)100,000 .. 200,00000:00 (00:00)Dio Alias GamesDio Alias Games
119 ASTA : ASTA Server Jun 22, 2017 N/AN/A (N/A)20,000 .. 50,00000:00 (00:00)POLYGON GAMESMove Games. Co., LTD
120 Beyond the Invisible: Evening Jun 22, 2017 $9.99N/A (N/A)0 .. 20,00000:00 (00:00)Graphium StudioImpossible Mystery Games
121 Keep Defending Jun 19, 2017 $2.39N/A (N/A)0 .. 20,00000:00 (00:00)Faster Time Games LimitedFaster Time Games Limited
122 SPACE DVRTS Jun 22, 2017 $1.99N/A (N/A)0 .. 20,00000:00 (00:00)Laser Fuel GamesLaser Fuel Games
123 The Frontier Outskirts VR Jun 11, 2017 $9.99N/A (N/A)0 .. 20,00000:00 (00:00)Struct9Struct9
124 Lux Alliance Jun 8, 2017 $9.99N/A (N/A)0 .. 20,00000:00 (00:00)Sillysoft GamesSillysoft Games
125 TITANS: Dawn of Tribes Jun 15, 2017 $9.99N/A (N/A)0 .. 20,00000:00 (00:00)34BigThings srl, Event Horizon StudiosIndieGala
126 Bebop and Tempo Jun 19, 2017 $4.99N/A (N/A)0 .. 20,00000:00 (00:00)Brandon DominguezBrandon Dominguez
127 ZHUST - THE ILLUSION SOUL Jun 9, 2017 $0.99N/A (N/A)0 .. 20,00000:00 (00:00)KT GamesKT Games
128 Persian Nights: Sands of Wonders Jun 29, 2017 $9.99N/A (N/A)0 .. 20,00000:00 (00:00)SodigitalArtifex Mundi
129 Jack Spriggan Jun 9, 2017 $13.99N/A (N/A)0 .. 20,00000:00 (00:00)VertexherderVertexherder
130 RunVR Jun 19, 2017 $5.99N/A (N/A)0 .. 20,00000:00 (00:00)Smoketree StudiosSmoketree Studios
131 Secret in Story Jun 19, 2017 $0.99N/A (N/A)200,000 .. 500,00000:00 (00:00)Luo Zhi EnLuo Zhi En
132 Fos Jun 29, 2017 $0.99N/A (N/A)0 .. 20,00000:00 (00:00)Plaidman GamesPlaidman Games
133 FIELD BREAKING Jun 3, 2017 $3.99N/A (N/A)0 .. 20,00000:00 (00:00)Evoluta StudioEvoluta Studio
134 Might & Mayhem Jun 5, 2017 FreeN/A (N/A)20,000 .. 50,00000:00 (00:00)Kiz StudiosYou42, Inc.
135 Mini Rollers Jun 16, 2017 $4.99N/A (N/A)0 .. 20,00000:00 (00:00)Gawkfish StudiosGawkfish Studios
136 The Sun Never Sets Jun 6, 2017 $4.99N/A (N/A)20,000 .. 50,00000:00 (00:00)Cipher HiveCipher Hive
137 21 Days Jun 16, 2017 $1.99N/A (N/A)0 .. 20,00000:00 (00:00)Hardtalk StudioHardtalk Studio
138 Sniper Fury Jun 13, 2017 FreeN/A (N/A)500,000 .. 1,000,00000:00 (00:00)GameloftGameloft
139 World of DASM, DASM Spell Quest Jun 5, 2017 $8.99N/A (N/A)0 .. 20,00000:00 (00:00)Shane HillierWorld of DASM
140 The Maid_san's Caving Adventure - メイドさん洞窟探検 - Jun 21, 2017 $1.99N/A (N/A)0 .. 20,00000:00 (00:00)KoheiGalleryKoheiGallery
141 UniOne Jun 17, 2017 $1.99N/A (N/A)0 .. 20,00000:00 (00:00)PlayColorfulGamesPlayColorfulGames
142 PLANETS OF WAR Jun 30, 2017 $0.99N/A (N/A)20,000 .. 50,00000:00 (00:00)Indiecode GamesIndiecode Games
143 归墟纪·寂夜 FINAL WORLD Jun 23, 2017 $16.99N/A (N/A)0 .. 20,00000:00 (00:00)Shine WorldShine World
144 Power Solitaire VR Jun 7, 2017 FreeN/A (N/A)0 .. 20,00004:17 (04:17)Parkerhill Reality LabsParkerhill Reality Labs
145 VINDICTA Jun 19, 2017 $14.99N/A (N/A)0 .. 20,00000:00 (00:00)Game CooksGame Cooks
146 Scrollonoid Jun 15, 2017 $2.99N/A (N/A)0 .. 20,00000:00 (00:00)VadjraVadjra
147 History2048 - 3D puzzle number game Jun 16, 2017 $1.99N/A (N/A)0 .. 20,00000:00 (00:00)purplElephantpurplElephant
148 Across The Moment Jun 5, 2017 $2.99N/A (N/A)20,000 .. 50,00000:00 (00:00)Andrei RomanovAndrei Romanov
149 Argo Jun 22, 2017 FreeN/A (N/A)2,000,000 .. 5,000,00000:21 (00:07)Bohemia InteractiveBohemia Interactive
150 BrotherZ Jun 3, 2017 $4.99N/A (N/A)0 .. 20,00000:00 (00:00)ID GroupID Group
151 Escape Together Jun 21, 2017 $0.49N/A (N/A)20,000 .. 50,00000:00 (00:00)Medis Media
152 Bunker 58 Jun 10, 2017 $1.99N/A (N/A)200,000 .. 500,00000:00 (00:00)Acuze InteractivesAcuze Interactives
153 Face It - A game to fight inner demons Jun 9, 2017 $3.99N/A (N/A)100,000 .. 200,00000:00 (00:00)Tlön Studios, Ilex GamesGamestorming
154 Riddles of Fate: Into Oblivion Collector's Edition Jun 14, 2017 $9.99N/A (N/A)0 .. 20,00000:00 (00:00)Elephant GamesBig Fish Games
155 Child of the Wind Jun 16, 2017 $7.99N/A (N/A)0 .. 20,00000:00 (00:00)FreetaleFreetale
156 Speedway Challenge League Jun 1, 2017 $2.99N/A (N/A)0 .. 20,00000:00 (00:00)Artur Berkowski BerobasketArtur Berkowski Berobasket
157 Die Young Jun 5, 2017 $14.99N/A (N/A)20,000 .. 50,00000:00 (00:00)IndieGalaIndieGala
158 Riley Short: Analog Boy - Episode 1 Jun 1, 2017 $4.99N/A (N/A)0 .. 20,00000:00 (00:00)boxmythboxmyth
159 Owari Jun 16, 2017 $2.99N/A (N/A)0 .. 20,00000:00 (00:00)Brian FrancoBrian Franco
160 Cladun Returns: This Is Sengoku! / クラシックダンジョン 戦国 Jun 6, 2017 $19.99N/A (N/A)0 .. 20,00000:00 (00:00)Nippon Ichi Software, Inc.NIS America, Inc.
161 Pathfinder Adventures Jun 15, 2017 $14.99N/A (N/A)100,000 .. 200,00000:00 (00:00)Obsidian EntertainmentAsmodee Digital
162 Turn your Destiny Jun 26, 2017 $2.99N/A (N/A)0 .. 20,00000:00 (00:00)Flying KiwiFlying Kiwi
163 Aztec Venture Jun 1, 2017 $8.99N/A (N/A)0 .. 20,00000:00 (00:00)rokaplayrokaplay
164 LandTraveller Jun 9, 2017 $14.99N/A (N/A)0 .. 20,00000:00 (00:00)WolfCoder WorkshopWOLFCODER WORKSHOP LLC
165 Flood of Light Jun 15, 2017 $3.99N/A (N/A)0 .. 20,00000:00 (00:00)IrisloftIrisloft
166 Mahjong Masters: Temple of the Ten Gods Jun 19, 2017 $6.99N/A (N/A)0 .. 20,00000:00 (00:00)PlaytinumBig Fish Games
167 Gnomelings: Migration Jun 12, 2017 $4.99N/A (N/A)0 .. 20,00000:00 (00:00)Prismic Studios, Dano KablamoPrismic Studios
168 Navalia Jun 2, 2017 $12.99N/A (N/A)0 .. 20,00000:00 (00:00)Luotsi EntertainmentDigital Tribe
169 Ticket to Earth Jun 28, 2017 $14.99N/A (N/A)0 .. 20,00000:00 (00:00)Robot CircusRobot Circus
170 Zup! 5 Jun 13, 2017 $0.69N/A (N/A)50,000 .. 100,00000:00 (00:00)Quiet RiverQuiet River
171 India Garden Jun 2, 2017 $8.99N/A (N/A)0 .. 20,00000:00 (00:00)Makivision Gamesrokaplay
172 VR Theme Park Rides Jun 8, 2017 $2.99N/A (N/A)0 .. 20,00000:00 (00:00)EnsenaSoftEnsenaSoft
173 Castle of no Escape Jun 22, 2017 $3.99N/A (N/A)0 .. 20,00000:00 (00:00)Xitilon, EsdeerXitilon
174 1982 Jun 28, 2017 FreeN/A (N/A)100,000 .. 200,00000:00 (00:00)Binary ZooBit Toys
175 Anxiety Jun 25, 2017 $0.99N/A (N/A)0 .. 20,00000:00 (00:00)PiFTyPiFTy
176 Inferno Puzzle Jun 30, 2017 $0.49N/A (N/A)0 .. 20,00000:00 (00:00)Tero LunkkaTero Lunkka
177 Flagsplosion Jun 28, 2017 $2.99N/A (N/A)0 .. 20,00000:00 (00:00)Smokey Moose GamesSmokey Moose Games
178 The Drone Racing League Simulator Jun 16, 2017 $19.99N/A (N/A)50,000 .. 100,00000:00 (00:00)The Drone Racing LeagueThe Drone Racing League
179 RectRacer Jun 29, 2017 $1.99N/A (N/A)0 .. 20,00000:00 (00:00)TradosoftTradosoft
180 Prelude for a Dream Jun 27, 2017 $4.99N/A (N/A)0 .. 20,00000:00 (00:00)Diego Fernandes Malinowsky, Daniel Fernandes Malinowsky, Altanir Aparecida Fernandes MalinowskyDiego Fernandes Malinowsky
181 Virus Z Jun 23, 2017 $2.99N/A (N/A)0 .. 20,00000:00 (00:00)Falco SoftwareOtakuMaker SARL
182 Operation Warcade VR Jun 2, 2017 $19.99N/A (N/A)0 .. 20,00000:00 (00:00)Ivanovich GamesIvanovich Games
183 War Chariots: Royal Legion Jun 14, 2017 $5.99N/A (N/A)0 .. 20,00000:00 (00:00)Sargis ShahzadyanSargis Shahzadyan
184 NOBUNAGA’S AMBITION: Haouden with Power Up Kit / 信長の野望・覇王伝 with パワーアップキット Jun 27, 2017 $19.99N/A (N/A)0 .. 20,00000:00 (00:00)KOEI TECMO GAMES CO., LTD.KOEI TECMO GAMES CO., LTD.
185 Three Twenty One Jun 30, 2017 FreeN/A (N/A)0 .. 20,00000:00 (00:00)MWC, David J. FrancoMWC
186 Swords and Sandals 2 Redux Jun 29, 2017 $6.99N/A (N/A)0 .. 20,00000:00 (00:00)Whiskeybarrel StudioseGames.com
187 Zombie Hobby VR Jun 29, 2017 $9.99N/A (N/A)0 .. 20,00000:00 (00:00)Pointlight GamesPointlight Games
188 Smashing The Battle VR Jun 15, 2017 $10.99N/A (N/A)0 .. 20,00000:00 (00:00)Studio HGYJM GAMES
189 Hunting Simulator Jun 9, 2017 $39.99N/A (N/A)0 .. 20,00000:00 (00:00)NeopicaBigben Interactive
190 You Shall Not Jump: PC Master Race Edition Jun 22, 2017 $4.99N/A (N/A)0 .. 20,00000:00 (00:00)Time RobbersTime Robbers
191 Beast Mode: Night of the Werewolf Jun 22, 2017 $0.99N/A (N/A)0 .. 20,00000:00 (00:00)Apeirogon GamesApeirogon Games
192 4D Toys Jun 2, 2017 $14.99N/A (N/A)0 .. 20,00000:00 (00:00)mtb design works, inc.mtb design works, inc.
193 Professor Teaches Accounting Fundamentals Jun 20, 2017 $14.99N/A (N/A)0 .. 20,00000:00 (00:00)Individual SoftwareIndividual Software
194 第502統合戦闘航空団 ブレイブウィッチーズ VR-Operation Baba_yaga-雪中迎撃戦 Jun 9, 2017 $17.99N/A (N/A)0 .. 20,00000:00 (00:00)ブレイブウィッチーズVR製作委員会株式会社プロダクション・アイジー
195 Endless Winter Jun 1, 2017 $7.99N/A (N/A)0 .. 20,00000:00 (00:00)DarkSun StudioDarkSun Studio, Gamera Game
196 Formicide Jun 12, 2017 FreeN/A (N/A)100,000 .. 200,00000:00 (00:00)Rock Wall Games, LLCRock Wall Games, LLC
197 Loptice Jun 23, 2017 $2.99N/A (N/A)0 .. 20,00000:00 (00:00)Aleksandar DakicAleksandar Dakic
198 Intel 5G VR Experience Jun 15, 2017 FreeN/A (N/A)0 .. 20,00003:43 (01:51)Groove JonesInfinity Marketing
199 Leashed Soul Jun 15, 2017 $4.99N/A (N/A)0 .. 20,00000:00 (00:00)Level One GamesLumiNet
200 HYPERCHARGE: Unboxed Jun 21, 2017 $14.99N/A (N/A)0 .. 20,00000:00 (00:00)Digital CybercherriesDigital Cybercherries
201 Haunted Hotel: Stay in the Light Jun 30, 2017 $5.99N/A (N/A)0 .. 20,00000:00 (00:00)JRad GamesJRad Games
202 Dead Exit Jun 20, 2017 $5.99N/A (N/A)0 .. 20,00000:00 (00:00)RadiationBurnRadiationBurn
203 Solarium Jun 29, 2017 FreeN/A (N/A)50,000 .. 100,00000:00 (00:00)Sunfleck SoftwareSunfleck Software
204 The little vampir Jun 30, 2017 $5.99N/A (N/A)0 .. 20,00000:00 (00:00)BRAINEARTBRAINEART
205 The Labyrinth Jun 21, 2017 $4.99N/A (N/A)0 .. 20,00000:00 (00:00)Alexander SpillmanAlexander Spillman
206 Lines Jun 8, 2017 $4.99N/A (N/A)0 .. 20,00000:00 (00:00)GamiousGamious
207 Humble Abode Jun 27, 2017 $0.99N/A (N/A)0 .. 20,00000:00 (00:00)Venomyth Game StudioVenomyth Game Studio
208 Country of One Jun 1, 2017 $8.99N/A (N/A)0 .. 20,00000:00 (00:00)Roman RevzinRoman Revzin
209 Crowman & Wolfboy Jun 2, 2017 $0.99N/A (N/A)0 .. 20,00000:00 (00:00)Wither StudiosWither Studios, LLC
210 Realm Grinder Jun 15, 2017 FreeN/A (N/A)500,000 .. 1,000,00000:00 (00:00)Divine GamesKongregate
211 Master Shot VR Jun 15, 2017 $7.99N/A (N/A)0 .. 20,00000:00 (00:00)Puresurface, Inc.Puresurface, Inc.
212 Simple RTS Jun 16, 2017 $4.99N/A (N/A)0 .. 20,00000:00 (00:00)Gal HajajGal Hajaj
213 Last Dream: World Unknown Jun 1, 2017 $9.99N/A (N/A)0 .. 20,00000:00 (00:00)White Giant RPG StudiosWhite Giant RPG Studios
214 Live2DViewerEX Jun 30, 2017 $4.99N/A (N/A)50,000 .. 100,00000:00 (00:00)Pavo StudioPavo Studio
215 DarkMaze Jun 6, 2017 $9.99N/A (N/A)0 .. 20,00000:00 (00:00)Chongqing Yan Wan network technology Co.Ltd.Chongqing Yan Wan network technology Co.Ltd.
216 Virush Jun 8, 2017 $5.99N/A (N/A)0 .. 20,00000:00 (00:00)ArcturusDMG Entertainment
217 PCMark 10 Jun 22, 2017 $29.99N/A (N/A)20,000 .. 50,00000:00 (00:00)ULUL
218 Art Of Gravity Jun 13, 2017 $0.99N/A (N/A)20,000 .. 50,00000:00 (00:00)Michal PawlowskiHamster On Coke Games
219 The Agency of Anomalies: The Last Performance Collector's Edition Jun 12, 2017 $9.99N/A (N/A)0 .. 20,00000:00 (00:00)OrneonBig Fish Games
220 Avatar of the Wolf Jun 22, 2017 $4.99N/A (N/A)0 .. 20,00000:00 (00:00)Choice of GamesChoice of Games
221 Scarlett Mysteries: Cursed Child Jun 8, 2017 $9.99N/A (N/A)0 .. 20,00000:00 (00:00)World-LoomArtifex Mundi
222 Demon Mark: A Russian Saga Jun 1, 2017 $5.99N/A (N/A)0 .. 20,00000:00 (00:00)Choice of GamesChoice of Games
223 Crush Jun 9, 2017 $11.99N/A (N/A)0 .. 20,00000:00 (00:00)VIS-GamesSilentFuture
224 Terra Mystica Jun 8, 2017 $14.99N/A (N/A)0 .. 20,00000:00 (00:00)DIGIDICEDDIGIDICED
225 CRAFT BATTLE SIMULATOR Jun 11, 2017 $4.99N/A (N/A)0 .. 20,00000:00 (00:00)Theodor NiklasTheodor Niklas
226 Hidden Animals: English - Spanish Jun 15, 2017 $2.99N/A (N/A)0 .. 20,00000:00 (00:00)ProgorionProgorion
227 Dabda Jun 30, 2017 $0.49N/A (N/A)0 .. 20,00000:00 (00:00)Happy Hobgoblin
228 Danganronpa Another Episode: Ultra Despair Girls Jun 27, 2017 $29.99N/A (N/A)20,000 .. 50,00000:00 (00:00)Spike Chunsoft Co., Ltd.Spike Chunsoft Co., Ltd.
229 Maestro: Music of Death Collector's Edition Jun 7, 2017 $9.99N/A (N/A)0 .. 20,00000:00 (00:00)ERS G StudiosBig Fish Games
230 Streetball VR Jun 2, 2017 $0.99N/A (N/A)0 .. 20,00000:00 (00:00)Indiecode GamesIndiecode Games
231 Rocket Wars Jun 15, 2017 $7.99N/A (N/A)0 .. 20,00000:00 (00:00)Archon InteractiveRooftop Panda
232 Battle Dome Jun 8, 2017 $9.99N/A (N/A)20,000 .. 50,00000:00 (00:00)Bad Bird StudiosOasis VR
233 Escape The Gray Jun 1, 2017 $1.99N/A (N/A)0 .. 20,00000:00 (00:00)QRA-CSQRA-CS
234 Assassination ClassroomVR Balloon Challenge Time/暗殺教室VR バルーンチャレンジの時間 Jun 15, 2017 $9.99N/A (N/A)0 .. 20,00000:00 (00:00)Alpha Code Inc.SHUEISHA Inc.
235 Life of Lon: Chapter 1 Jun 1, 2017 FreeN/A (N/A)20,000 .. 50,00000:00 (00:00)Block IntervalBlock Interval
236 Armed with Wings: Rearmed Jun 1, 2017 $9.99N/A (N/A)20,000 .. 50,00000:00 (00:00)Sun-StudiosSun-Studios
237 Caelum: Into the Sky Jun 8, 2017 $4.99N/A (N/A)0 .. 20,00000:00 (00:00)Digital Realms LtdDigital Realms Ltd
238 Lazer Cops Jun 15, 2017 FreeN/A (N/A)0 .. 20,00000:00 (00:00)Foolish Mortals GamesFoolish Mortals Games
239 Breaking Fast Jun 8, 2017 $9.99N/A (N/A)0 .. 20,00000:00 (00:00)Tale StudiosTale Studios
240 Chess Ultra Jun 21, 2017 $12.99N/A (N/A)0 .. 20,00000:00 (00:00)RipstoneRipstone
241 M.A.C.S. Jun 14, 2017 $4.99N/A (N/A)0 .. 20,00000:00 (00:00)House IzezwethHouse Izezweth
242 Geneticognito Jun 9, 2017 $2.99N/A (N/A)0 .. 20,00000:00 (00:00)Blob GamesBlob Games
243 Equivoque Jun 27, 2017 $1.99N/A (N/A)0 .. 20,00000:00 (00:00)Jenny Bee PresentsJenny Bee Presents
244 Crazy Catman Jun 1, 2017 $0.49N/A (N/A)0 .. 20,00000:00 (00:00)oblomyshoblomysh
245 TERRAGEARTH Jun 30, 2017 $4.99N/A (N/A)0 .. 20,00000:00 (00:00)Denis IsakovDenis Isakov
246 Subject A-119 Jun 9, 2017 FreeN/A (N/A)0 .. 20,00000:00 (00:00)HeekdevelopmentHeekdevelopment
247 Reaping Rewards Jun 9, 2017 FreeN/A (N/A)20,000 .. 50,00003:43 (03:43)Limitless LtdLimitless Ltd
248 Time To Walk Alone Jun 29, 2017 $0.99N/A (N/A)0 .. 20,00000:00 (00:00)INDIEPLAYINDIEPLAY
249 Trojan Inc. Jun 7, 2017 $2.99N/A (N/A)0 .. 20,00000:00 (00:00)WalkBoy StudioWalkBoy Studio
250 Cyber Utopia Jun 16, 2017 $0.99N/A (N/A)0 .. 20,00000:00 (00:00)Coconut Tree StudioDroid Riot
251 Cart Racer Jun 5, 2017 $0.99N/A (N/A)20,000 .. 50,00000:00 (00:00)HFM GamesHFM Games
252 DC Wonder: Unlimited Jun 14, 2017 $4.99N/A (N/A)0 .. 20,00000:00 (00:00)NucleaxNucleax
253 Lander 8009 VR Jun 16, 2017 $14.99N/A (N/A)0 .. 20,00000:00 (00:00)Ivanovich GamesIvanovich Games
254 Castle of Shikigami 式神の城 Jun 15, 2017 $11.99N/A (N/A)0 .. 20,00000:00 (00:00)Cosmo Machia, Alfa SystemDegica
255 Spin the Beat Jun 19, 2017 $4.99N/A (N/A)0 .. 20,00000:00 (00:00)Clockwork Anomaly, LLCClockwork Anomaly, LLC
256 Genghis Khan II: Clan of the Gray Wolf / 蒼き狼と白き牝鹿・元朝秘史 Jun 27, 2017 $12.99N/A (N/A)0 .. 20,00000:00 (00:00)KOEI TECMO GAMES CO., LTD.KOEI TECMO GAMES CO., LTD.
257 Relax Walk VR Jun 2, 2017 $0.99N/A (N/A)0 .. 20,00000:00 (00:00)Indiecode GamesIndiecode Games
258 Zzzz-Zzzz-Zzzz Jun 5, 2017 $0.51N/A (N/A)200,000 .. 500,00000:00 (00:00)SaintHeiserDagestan Technology
259 FlatOut 4: Total Insanity Workshop Tool Jun 22, 2017 FreeN/A (N/A)0 .. 20,00000:00 (00:00)KylotonnStrategy First
260 Zombie Solitaire 2 Chapter 1 Jun 30, 2017 $8.99N/A (N/A)0 .. 20,00000:00 (00:00)rokapublishrokapublish
261 AccuRC 2 Jun 12, 2017 $49.99N/A (N/A)0 .. 20,00000:00 (00:00)trasnatechtrasnatech
262 Mob Stadium Jun 15, 2017 $1.99N/A (N/A)0 .. 20,00000:00 (00:00)flapjaxNest Egg Games, LLC
263 Freefall Jun 1, 2017 $4.99N/A (N/A)0 .. 20,00000:00 (00:00)ShockkShockk
264 Dal Segno Jun 30, 2017 $39.99N/A (N/A)0 .. 20,00000:00 (00:00)CircusMangaGamer
265 Mega Maze Jun 23, 2017 $3.99N/A (N/A)0 .. 20,00000:00 (00:00)ChronovaChronova
266 Trivia Night Jun 24, 2017 $4.99N/A (N/A)0 .. 20,00000:00 (00:00)Timberwolf StudiosTimberwolf Studios
267 Alvora Tactics Jun 1, 2017 $9.99N/A (N/A)0 .. 20,00000:00 (00:00)Rad CodexRad Codex
268 Cold Waters Jun 5, 2017 $39.99N/A (N/A)50,000 .. 100,00000:00 (00:00)Killerfish GamesKillerfish Games
269 The First Time I Died Jun 20, 2017 $1.99N/A (N/A)0 .. 20,00000:00 (00:00)Ryan StephenRyan Stephen
270 Lost Legends: The Pharaoh's Tomb Jun 30, 2017 $2.99N/A (N/A)0 .. 20,00000:00 (00:00)Escape VR LLCEscape VR LLC
271 Gray Skies, Dark Waters Jun 9, 2017 $4.99N/A (N/A)0 .. 20,00000:00 (00:00)Green Willow Games, LLCGreen Willow Games, LLC
272 Warsim: The Realm of Aslona Jun 28, 2017 $3.74N/A (N/A)0 .. 20,00000:00 (00:00)Huw MillwardHuw Millward
273 Romance of the Three Kingdoms VI with Power Up Kit / 三國志VI with パワーアップキット Jun 27, 2017 $19.99N/A (N/A)0 .. 20,00000:00 (00:00)KOEI TECMO GAMES CO., LTD.KOEI TECMO GAMES CO., LTD.
274 World Basketball Manager 2 Jun 22, 2017 $9.99N/A (N/A)0 .. 20,00000:00 (00:00)Icehole GamesStrategy First
275 Isotiles - Isometric Puzzle Game Jun 16, 2017 $1.99N/A (N/A)20,000 .. 50,00000:00 (00:00)Robert AlvarezRobert Alvarez
276 Heavily Armed Jun 16, 2017 $14.99N/A (N/A)0 .. 20,00000:00 (00:00)Figurehead Studios, CRASS StudiosCRASS Infotech
277 Dwingle : B.O.T Jun 19, 2017 $2.99N/A (N/A)0 .. 20,00000:00 (00:00)XXII GROUPXXII GROUP
278 Trio Jun 8, 2017 $0.99N/A (N/A)20,000 .. 50,00000:00 (00:00)Paper PlanePaper Plane
279 VRTGO Jun 23, 2017 FreeN/A (N/A)0 .. 20,00003:43 (03:43)VRLiveVRLive
280 Slingshot Puzzle Jun 30, 2017 $1.24N/A (N/A)0 .. 20,00000:00 (00:00)DreamDaleDreamDale
281 Drive-By Hero Jun 14, 2017 $1.99N/A (N/A)0 .. 20,00000:00 (00:00)Idea CabinIdea Cabin
282 Kindergarten Jun 15, 2017 $4.99N/A (N/A)100,000 .. 200,00000:00 (00:00)Con Man Games, SmashGamesSmashGames
283 End of the Road VR Jun 29, 2017 $1.99N/A (N/A)0 .. 20,00000:00 (00:00)Barracuda DisasterBarracuda Disaster
284 WiseMind Jun 13, 2017 $19.99N/A (N/A)0 .. 20,00000:00 (00:00)REALITEER Corp.REALITEER Corp.
285 Hop Step Sing! kiss×kiss×kiss (HQ Edition) Jun 29, 2017 $4.99N/A (N/A)0 .. 20,00000:00 (00:00)Kodansha, Polygon Pictures Inc., LantisDegica
286 Superdimension Neptune VS Sega Hard Girls | 超次元大戦ネプテューヌVSセガハードガールズ夢の合体スペシャル | 超次元大戰戰機少女VS SEGA主機娘夢幻合體特別版 Jun 12, 2017 $8.99N/A (N/A)20,000 .. 50,00000:00 (00:00)IDEA FACTORY, COMPILE HEART, FELISTELLAIdea Factory International
287 Shattered God - Quest for the Divine Relic Jun 26, 2017 $4.99N/A (N/A)0 .. 20,00000:00 (00:00)Ithiro SumiIthiro Sumi
288 Uphill Skiing Jun 30, 2017 $4.99N/A (N/A)0 .. 20,00000:00 (00:00)Happy HobgoblinHappy Hobgoblin
289 Lionessy Story Jun 3, 2017 $4.99N/A (N/A)0 .. 20,00000:00 (00:00)Maltakreuz, GoodsirMaltakreuz
290 Weather Lord: Hidden Realm Jun 8, 2017 $4.99N/A (N/A)0 .. 20,00000:00 (00:00)Yustas Game Studio, Alawar EntertainmentBuka Entertainment
291 Castle Defender Jun 9, 2017 $0.99N/A (N/A)0 .. 20,00000:00 (00:00)Mihai MorosanuMihai Morosanu
292 Phantasma VR Jun 12, 2017 $9.99N/A (N/A)0 .. 20,00000:00 (00:00)The Shady GentlemenThe Shady Gentlemen
293 MotoGP17 Jun 15, 2017 $39.99N/A (N/A)20,000 .. 50,00000:00 (00:00)Milestone S.r.l.Milestone S.r.l.
294 Lord of Djinn Jun 15, 2017 $2.99N/A (N/A)0 .. 20,00000:00 (00:00)Lightray GamesLightray Games
295 Beached Jun 28, 2017 $1.99N/A (N/A)0 .. 20,00000:00 (00:00)James PettyJames Petty
296 A Room Beyond Jun 13, 2017 $7.99N/A (N/A)0 .. 20,00000:00 (00:00)René BühlingRené Bühling
297 Gravity Quest Jun 23, 2017 $2.99N/A (N/A)0 .. 20,00000:00 (00:00)Light Road GamesLight Road Games
298 WILL: A Wonderful World / WILL:美好世界 Jun 6, 2017 $14.99N/A (N/A)100,000 .. 200,00000:00 (00:00)WMY StudioWMY Studio, AGM PLAYISM
299 Distant Nightmare - Virtual reality Jun 30, 2017 $1.99N/A (N/A)0 .. 20,00000:00 (00:00)Field Of VisionField Of Vision
300 5 Star Rio Resort Jun 30, 2017 $8.99N/A (N/A)0 .. 20,00000:00 (00:00)rokaplayrokaplay
301 Toy Plane Heroes Jun 8, 2017 $9.99N/A (N/A)0 .. 20,00000:00 (00:00)Oasis VROasis VR
302 电竞俱乐部/ESports Club Jun 30, 2017 $8.99N/A (N/A)100,000 .. 200,00000:00 (00:00)Hangzhou Xinlan Network Technology Co.,Ltd.菠菜游戏
303 Weather Lord: In Search of the Shaman Jun 8, 2017 $4.99N/A (N/A)0 .. 20,00000:00 (00:00)Yustas Game Studio, Alawar EntertainmentBuka Entertainment
304 Stoire Jun 2, 2017 $0.99N/A (N/A)20,000 .. 50,00000:00 (00:00)Greendev.Droid Riot
305 Super Sports Surgery Jun 22, 2017 $4.99N/A (N/A)0 .. 20,00000:00 (00:00)Badim, WedoyouplayBadim
306 Strikey Sisters Jun 1, 2017 $9.99N/A (N/A)20,000 .. 50,00000:00 (00:00)DYA GamesDYA Games
307 Solar System Journey VR Jun 28, 2017 $1.99N/A (N/A)0 .. 20,00000:00 (00:00)AmusitronixAmusitronix
308 Geoid Jun 16, 2017 $9.99N/A (N/A)0 .. 20,00000:00 (00:00)Zen Relay GamesZen Relay Games
309 Mary Le Chef - Cooking Passion Jun 23, 2017 $6.49N/A (N/A)0 .. 20,00000:00 (00:00)Cateia GamesGameHouse
310 Dies irae ~Amantes amentes~ Jun 2, 2017 FreeN/A (N/A)50,000 .. 100,00000:00 (00:00)lightviews Co., Ltd
311 Run Jump Die Repeat Jun 15, 2017 $0.99N/A (N/A)0 .. 20,00000:00 (00:00)LongArm InteractiveLongArm Interactive
312 ESCAPE Room: Reality Jun 20, 2017 $8.99N/A (N/A)0 .. 20,00000:00 (00:00)Team NeetbytesTeam Neetbytes
313 Virtual SlotCars Jun 9, 2017 $9.99N/A (N/A)0 .. 20,00000:00 (00:00)PraGamesPraGames
314 Airtone Jun 8, 2017 $29.99N/A (N/A)0 .. 20,00000:00 (00:00)historia IncAMG GAMES
315 Rite of Passage: Child of the Forest Collector's Edition Jun 5, 2017 $9.99N/A (N/A)0 .. 20,00000:00 (00:00)Mad Head GamesBig Fish Games
316 Trainscape Jun 28, 2017 $19.99N/A (N/A)0 .. 20,00000:00 (00:00)Bit ToysBit Toys
317 Star Fleet Armada Rogue Adventures Jun 5, 2017 $6.99N/A (N/A)0 .. 20,00000:00 (00:00)Blue Blaze GamingBlue Blaze Gaming
318 TAP TOUCH RUN Jun 29, 2017 $0.49N/A (N/A)50,000 .. 100,00000:00 (00:00)Pointlight Games
319 Red Bull Doodle Art - Global VR Gallery Jun 30, 2017 FreeN/A (N/A)0 .. 20,00003:08 (03:08)Red Bull Media House, Red Bull, KoffeecupRed Bull Media House
320 Galactic Missile Defense Jun 7, 2017 $1.99N/A (N/A)0 .. 20,00000:00 (00:00)Black Sheep GamesBlack Sheep Games
321 Katana X Jun 9, 2017 $7.99N/A (N/A)0 .. 20,00000:00 (00:00)Aargle, LLCAargle, LLC
322 Zombie Quarantine Jun 23, 2017 $0.99N/A (N/A)0 .. 20,00000:00 (00:00)Tobop ProductionsShangri-La Game Studios Ltd
323 Hot Plates Jun 16, 2017 $4.99N/A (N/A)0 .. 20,00000:00 (00:00)bluebox interactive, RoJarl Entertainmentbluebox interactive
324 Hop Step Sing! Kisekiteki Shining! (HQ Edition) Jun 29, 2017 $4.99N/A (N/A)0 .. 20,00000:00 (00:00)Kodansha, Polygon Pictures Inc., LantisDegica
325 Home Wars Jun 13, 2017 $9.99N/A (N/A)20,000 .. 50,00000:00 (00:00)Insane DreamersInsane Dreamers
326 Isle in the Sky Jun 12, 2017 $3.99N/A (N/A)0 .. 20,00000:00 (00:00)Jan-Fredrik BrasethFome Productions
327 ObserVRtarium Jun 8, 2017 FreeN/A (N/A)0 .. 20,00000:00 (00:00)NSC CreativeNSC Creative
328 Unreal Estate Jun 9, 2017 $2.99N/A (N/A)0 .. 20,00000:00 (00:00)Afterthought GamesAfterthought Games
329 Deadly Hunter VR Jun 19, 2017 FreeN/A (N/A)0 .. 20,00000:00 (00:00)Leiting InteractiveLeiting Interactive
330 The Mechanical Room VR Jun 15, 2017 $1.99N/A (N/A)0 .. 20,00000:00 (00:00)MASH VirtualMASH Virtual
331 The war god : The artifact Jun 19, 2017 $5.99N/A (N/A)0 .. 20,00000:00 (00:00)Zhejiang TQHY TechnologyZhejiang TQHY Technology
332 MultiVR.se Jun 20, 2017 FreeN/A (N/A)20,000 .. 50,00003:43 (03:43)VRider, Inc.VRider, Inc.
333 UltraGoodness Jun 2, 2017 $2.03N/A (N/A)100,000 .. 200,00000:00 (00:00)Rasul MonoRasul Mono
334 xDrive VR Jun 16, 2017 $12.99N/A (N/A)0 .. 20,00000:00 (00:00)Themes_DalyThemes_Daly
335 Lathe Safety Simulator Jun 6, 2017 FreeN/A (N/A)0 .. 20,00000:00 (00:00)Arli Tuominen, Amelie Berthome, Joël Cancela Vaz, Kallan Dautriche, Malo Hilliard, Corentin Lheriaud, Bastien Ollivo, Arthur Pernot, Maxime Pointet, Fabien Quibreteau, Arttu Tuovinen, Augusto Gómez Eguíluz, Niall McShane, Michael CallaghMichael Callaghan
336 Goodbye My King Jun 16, 2017 $0.51N/A (N/A)0 .. 20,00000:00 (00:00)GKSiberian Digital
337 StratoBash Jun 2, 2017 $3.99N/A (N/A)0 .. 20,00000:00 (00:00)Phr00t's SoftwarePhr00t's Software
338 DragoDino Jun 20, 2017 $11.99N/A (N/A)0 .. 20,00000:00 (00:00)TealRocks StudioPlug In Digital
339 We Slay Monsters Jun 21, 2017 $9.99N/A (N/A)0 .. 20,00000:00 (00:00)Furiously Inactive GamesFuriously Inactive Games
340 Block Rocking Beats Jun 30, 2017 $14.99N/A (N/A)0 .. 20,00000:00 (00:00)Sander Sneek, Jochem de KlerkSNAKE Productions
341 Bubble Labs VR Jun 8, 2017 $2.99N/A (N/A)0 .. 20,00000:00 (00:00)Kishan Emens (dev), Tavius Woods (art)Kishan Emens
342 NEONomicon Jun 1, 2017 $0.99N/A (N/A)0 .. 20,00000:00 (00:00)CWH EntertainmentCWH Entertainment
343 Professor Teaches Business Planning Jun 20, 2017 $14.99N/A (N/A)0 .. 20,00000:00 (00:00)Individual SoftwareIndividual Software
344 Ski Jump VR Jun 8, 2017 $4.99N/A (N/A)0 .. 20,00000:00 (00:00)Pixel Perfect DudePixel Perfect Dude
345 Mind Maze Jun 16, 2017 $0.99N/A (N/A)0 .. 20,00000:00 (00:00)Satur EntertainmentSatur Entertainment
346 Escape Room Jun 30, 2017 $0.99N/A (N/A)0 .. 20,00000:00 (00:00)AppFactoryHaru-NiAppFactoryHaru-Ni
347 Drums Hero PC Jun 21, 2017 $4.99N/A (N/A)0 .. 20,00000:00 (00:00)Player Of Music Technology Co.,LtdPlayer Of Music Technology Co.,Ltd
348 Sin Castle Jun 19, 2017 $4.99N/A (N/A)0 .. 20,00000:00 (00:00)Primary cells studioPrimary cells studio
349 ZOMBIE TOWN AHHH Jun 22, 2017 $3.99N/A (N/A)0 .. 20,00000:00 (00:00)Bitporters LTD.Bitporters LTD.
350 VR Slugger: The Toy Baseball Field Jun 8, 2017 $11.99N/A (N/A)0 .. 20,00000:00 (00:00)Poly Poly GamesPoly Poly Games
351 Lamp Head Jun 1, 2017 $1.99N/A (N/A)20,000 .. 50,00000:00 (00:00)OriplayCristian Manolachi, Atomic Fabrik
352 7 Pillars Jun 20, 2017 $1.99N/A (N/A)0 .. 20,00000:00 (00:00)Mark HaganMark Hagan
353 Fishermurs Jun 13, 2017 $0.99N/A (N/A)20,000 .. 50,00000:00 (00:00)Reward HuntersDroid Riot
354 The Artifact Jun 2, 2017 $7.99N/A (N/A)0 .. 20,00000:00 (00:00)Colin Wren, Sean Scaplehorn, Wayne Jackson, Jason MallettEnigma Games LTD, KISS ltd
355 Colony Survival Jun 16, 2017 $19.99N/A (N/A)100,000 .. 200,00000:00 (00:00)PiplizPipliz
356 Planetbound Jun 26, 2017 $1.99N/A (N/A)0 .. 20,00000:00 (00:00)T_T GamesT_T Games
357 Golden Panic Jun 21, 2017 $9.99N/A (N/A)0 .. 20,00000:00 (00:00)MissingNo StudioMissingNo Studio
358 After The End: The Harvest Jun 2, 2017 $4.99N/A (N/A)20,000 .. 50,00000:00 (00:00)ElushisElushis Music & Gaming
359 Extra Terrestrial Perception Jun 13, 2017 FreeN/A (N/A)0 .. 20,00000:00 (00:00)Try This At HomeTry This At Home
360 Trapped Summoner Jun 9, 2017 $1.99N/A (N/A)0 .. 20,00000:00 (00:00)Trapped TeamTrapped Team
361 Unearthing Mars VR Jun 22, 2017 $14.99N/A (N/A)0 .. 20,00000:00 (00:00)Winking EntertainmentWinking Skywalker
362 welcome to heaven Jun 22, 2017 FreeN/A (N/A)50,000 .. 100,00000:00 (00:00)vextrovextro
363 The Existence Abstract Jun 5, 2017 $3.99N/A (N/A)0 .. 20,00000:00 (00:00)Frame Perfect StudiosFrame Perfect Studios
364 Undead Hunter Jun 1, 2017 $0.51N/A (N/A)20,000 .. 50,00000:00 (00:00)Gameplay Ltd.Gameplay Ltd.
365 Witchinour Jun 12, 2017 $2.99N/A (N/A)0 .. 20,00000:00 (00:00)mahojigokumahojigoku
366 Spider-Man: Homecoming - Virtual Reality Experience Jun 30, 2017 FreeN/A (N/A)100,000 .. 200,00000:00 (00:00)CreateVRSony Pictures Virtual Reality
367 Family Tree Heritage Platinum 15 – Mac Jun 30, 2017 $39.99N/A (N/A)0 .. 20,00000:00 (00:00)Ancestral QuestIndividual Software
368 Space Panic: Room Escape (VR) Jun 22, 2017 $6.99N/A (N/A)0 .. 20,00000:00 (00:00)Xefier Games Inc.Project Whitecard Studios Inc., EvolVR Games Ltd.
369 UNTITLED Jun 2, 2017 $2.99N/A (N/A)0 .. 20,00000:00 (00:00)Bean Boy GamesBean Boy Games
370 Princess Maker 3: Fairy Tales Come True Jun 27, 2017 $19.99N/A (N/A)0 .. 20,00000:00 (00:00)CFK Co., Ltd.CFK Co., Ltd.
371 House Party Jun 30, 2017 $14.99N/A (N/A)100,000 .. 200,00003:35 (01:47)Eek! Games, LLCEek! Games, LLC
372 Kuro survival Jun 21, 2017 $0.99N/A (N/A)0 .. 20,00000:00 (00:00)Phuong Nguyennlfastudio
373 I'm Awesome Jun 7, 2017 $1.99N/A (N/A)0 .. 20,00000:00 (00:00)Team D-13
374 Don't Tax Me, Bro! Jun 5, 2017 $2.99N/A (N/A)20,000 .. 50,00000:00 (00:00)TibithTibith
375 The Island of Eternal Struggle Jun 6, 2017 $6.99N/A (N/A)0 .. 20,00000:00 (00:00)Wimbus StudiosWimbus Studios
376 Jump Stars Jun 9, 2017 $9.99N/A (N/A)0 .. 20,00000:00 (00:00)Jamit GamesCurve Digital
377 Rescue Quest Gold Jun 5, 2017 $9.99N/A (N/A)0 .. 20,00000:00 (00:00)Boomzap EntertainmentBoomzap Entertainment
378 Your Smile Beyond Twilight:黄昏下的月台上 Jun 23, 2017 $1.99N/A (N/A)0 .. 20,00000:00 (00:00)Lingtan StudioLingtan Studio
379 Dirty Fighter 2 Jun 27, 2017 $9.99N/A (N/A)0 .. 20,00000:00 (00:00)Dirty Fighter TeamZero Brain, LLC
380 Impulse: Space Combat Jun 5, 2017 $4.99N/A (N/A)0 .. 20,00000:00 (00:00)Darkmatter GamesStribling Media
381 de Blob 2 Jun 22, 2017 $19.99N/A (N/A)0 .. 20,00000:00 (00:00)Blue Tongue Entertainment, BlitworksTHQ Nordic
382 SAELIG Jun 30, 2017 $14.99N/A (N/A)0 .. 20,00000:00 (00:00)Stardog GamesStardog Games
383 Bullet Dodge Jun 15, 2017 $0.99N/A (N/A)0 .. 20,00000:00 (00:00)QRA-CSQRA-CS
384 Tilted Mind Jun 9, 2017 $2.99N/A (N/A)0 .. 20,00000:00 (00:00)Paul SvelmoePaul Svelmoe
385 3..2..1..Grenades! Jun 21, 2017 $7.99N/A (N/A)0 .. 20,00000:00 (00:00)BanyangoBanyango
386 SQUIDS FROM SPACE Jun 16, 2017 $2.99N/A (N/A)0 .. 20,00000:00 (00:00)Fun BitsFun Bits
387 Grim Facade: Sinister Obsession Collector’s Edition Jun 2, 2017 $9.99N/A (N/A)0 .. 20,00000:00 (00:00)ERS G StudiosBig Fish Games
388 RiotZ Jun 30, 2017 $3.99N/A (N/A)0 .. 20,00000:00 (00:00)Triple Rush GamesTriple Rush Games
389 Destruction 48 Jun 10, 2017 $0.51N/A (N/A)20,000 .. 50,00000:00 (00:00)Vyacheslav ShilikhinVyacheslav Shilikhin
390 斩毒:黑与白(Narcotics Police:Black and White) Jun 10, 2017 $0.99N/A (N/A)0 .. 20,00000:00 (00:00)LongWuLongWu
391 Valhall 2000 Jun 17, 2017 $1.99N/A (N/A)0 .. 20,00000:00 (00:00)SimernesSimernes
392 Amber's Magic Shop Jun 8, 2017 $19.99N/A (N/A)0 .. 20,00000:00 (00:00)Winter WolvesWinter Wolves
393 A Bloody Night Jun 22, 2017 $4.99N/A (N/A)0 .. 20,00000:00 (00:00)Emanuele LeoncilliEmanuele Leoncilli
394 SAKeRETSU Jun 18, 2017 $3.99N/A (N/A)0 .. 20,00000:00 (00:00)Klassen GamesKlassen Games
395 Dog Duty Jun 21, 2017 $5.99N/A (N/A)0 .. 20,00000:00 (00:00)Zanardi and LizaZanardi and Liza
396 Maniac GO Jun 29, 2017 $0.49N/A (N/A)0 .. 20,00000:00 (00:00)MyDreamForever_OldDark Light Studio
397 Tormentor❌Punisher Jun 2, 2017 $7.99N/A (N/A)50,000 .. 100,00000:00 (00:00)E-StudioRaw Fury
398 Gunball Jun 28, 2017 $7.99N/A (N/A)0 .. 20,00000:00 (00:00)REDspaceREDspace
399 Murder In Tehran's Alleys 2016 Jun 8, 2017 $9.99N/A (N/A)0 .. 20,00000:00 (00:00)RSK EntertainmentStrategy First
400 Mystika 3 : Awakening of the dragons Jun 23, 2017 $4.99N/A (N/A)0 .. 20,00000:00 (00:00)UnikgameUnikware
401 Zooicide Jun 30, 2017 $4.99N/A (N/A)20,000 .. 50,00000:00 (00:00)Evil Tortilla GamesEvil Tortilla Games
402 liquivid Video Exposure and Effects Jun 13, 2017 $8.99N/A (N/A)0 .. 20,00000:00 (00:00)nullplussoftwarenullplussoftware
403 The Adliberum Engine (ADLENGINE) Jun 23, 2017 FreeN/A (N/A)0 .. 20,00000:00 (00:00)Liam TwoseLiam Twose
404 Vehicle VR Jun 9, 2017 $1.99N/A (N/A)0 .. 20,00000:00 (00:00)Nick HelwegNick Helweg
405 Micro Machines World Series Jun 29, 2017 $29.99N/A (N/A)20,000 .. 50,00000:00 (00:00)CodemastersCodemasters
406 Tank Battle: Normandy Jun 9, 2017 $9.99N/A (N/A)0 .. 20,00000:00 (00:00)HexWar GamesHexWar Games
407 Debugger 3.16: Hack'n'Run Jun 20, 2017 $12.99N/A (N/A)0 .. 20,00000:00 (00:00)Spiderwork GamesSpiderwork Games
408 TinkerQuarry Jun 12, 2017 FreeN/A (N/A)0 .. 20,00000:00 (00:00)Caprizant Games
409 Switch Jun 23, 2017 $39.99N/A (N/A)0 .. 20,00000:00 (00:00)NCH SoftwareNCH Software
410 Travel Riddles: Trip To Greece Jun 23, 2017 $9.99N/A (N/A)0 .. 20,00000:00 (00:00)Notus Games LtdNotus Games Ltd
411 Battlesloths 2025: The Great Pizza Wars Jun 6, 2017 $9.99N/A (N/A)0 .. 20,00000:00 (00:00)Invisible CollectiveRooster Teeth Games
412 Dungeon Defenders II Jun 20, 2017 FreeN/A (N/A)2,000,000 .. 5,000,00000:00 (00:00)Trendy EntertainmentTrendy Entertainment
413 The Normal Day Jun 8, 2017 $2.99N/A (N/A)0 .. 20,00000:00 (00:00)JonareneJonarene
414 Merri Puzzle Jun 20, 2017 $0.99N/A (N/A)20,000 .. 50,00000:00 (00:00)Merriman GamesMerriman Games
415 FootRock 2 Jun 16, 2017 $0.99N/A (N/A)20,000 .. 50,00000:00 (00:00)nobodyshotnobodyshot
416 Crystal City Jun 9, 2017 $0.51N/A (N/A)50,000 .. 100,00000:00 (00:00)7DOTSDagestan Technology
417 Luxin Time Jun 23, 2017 $1.99N/A (N/A)0 .. 20,00000:00 (00:00)ExtraSaucySauceExtraSaucySauce
418 Adjacency Jun 9, 2017 $2.99N/A (N/A)0 .. 20,00000:00 (00:00)sleepy macawsleepy macaw
419 High clear VR Jun 26, 2017 $19.99N/A (N/A)0 .. 20,00000:00 (00:00)FiveStarGamesFiveStarGames
420 龙魂时刻 Jun 27, 2017 FreeN/A (N/A)200,000 .. 500,00000:00 (00:00)Jenny Bee Presents
421 Keep It Safe 2 Jun 22, 2017 $0.99N/A (N/A)0 .. 20,00000:00 (00:00)BeshevGamesBeshevGames
422 Battlefleet Engineer Jun 10, 2017 $4.99N/A (N/A)0 .. 20,00000:00 (00:00)Tomi SyväjärviTomi Syväjärvi
423 Spears 'n' Spades Jun 8, 2017 $1.99N/A (N/A)0 .. 20,00000:00 (00:00)LeatherIceCream, LazyTomato, Madvertiz0rProc Spine
Overview
Help

Owners: Estimated number of people owning this game. The number might be way too small for new releases and sometimes way too big for games that had free weekend event recently. Read more on About page.

Playtime: Average hours played in total per person that have actually launched this game since March 2009. This time is calculated for the whole lifetime, not for the particular year.

Average score: Average users and metacritic score for all games with this score assigned.

Average playtime: Average lifetime playtime for all games where this data is available.

Games this year: Self-explaining - number of games released this year. Please note that it also includes software, but doesn't include DLC. Only inculdes games with sales data available.

Total copies owned: Refers to total copies of games released this year acquired by users for the lifetime. Includes copies sold, downloaded for free and given out.

This number might be too small for recently released games or too big for games that had a free weekend in the last couple of months.